sensor_id;sensor_type;location;lat;lon;timestamp;P1;durP1;ratioP1;P2;durP2;ratioP2
9052;SDS011;4561;47.450;7.516;2023-04-25T00:01:48;7.10;;;2.53;;
9052;SDS011;4561;47.450;7.516;2023-04-25T00:05:12;5.70;;;2.70;;
9052;SDS011;4561;47.450;7.516;2023-04-25T00:08:34;4.43;;;2.77;;
9052;SDS011;4561;47.450;7.516;2023-04-25T00:11:55;4.17;;;2.30;;
9052;SDS011;4561;47.450;7.516;2023-04-25T00:15:18;5.93;;;2.90;;
9052;SDS011;4561;47.450;7.516;2023-04-25T00:18:39;6.13;;;2.53;;
9052;SDS011;4561;47.450;7.516;2023-04-25T00:21:59;7.10;;;3.03;;
9052;SDS011;4561;47.450;7.516;2023-04-25T00:25:20;4.90;;;2.50;;
9052;SDS011;4561;47.450;7.516;2023-04-25T00:28:40;5.40;;;2.37;;
9052;SDS011;4561;47.450;7.516;2023-04-25T00:32:01;4.80;;;2.60;;
9052;SDS011;4561;47.450;7.516;2023-04-25T00:35:22;7.00;;;2.77;;
9052;SDS011;4561;47.450;7.516;2023-04-25T00:38:42;4.70;;;2.63;;
9052;SDS011;4561;47.450;7.516;2023-04-25T00:42:02;4.63;;;2.37;;
9052;SDS011;4561;47.450;7.516;2023-04-25T00:45:23;7.60;;;2.63;;
9052;SDS011;4561;47.450;7.516;2023-04-25T00:48:47;5.93;;;2.50;;
9052;SDS011;4561;47.450;7.516;2023-04-25T00:52:10;6.20;;;2.77;;
9052;SDS011;4561;47.450;7.516;2023-04-25T00:55:31;2.90;;;2.10;;
9052;SDS011;4561;47.450;7.516;2023-04-25T00:58:55;4.70;;;2.43;;
9052;SDS011;4561;47.450;7.516;2023-04-25T01:02:16;4.67;;;2.37;;
9052;SDS011;4561;47.450;7.516;2023-04-25T01:05:37;3.53;;;2.20;;
9052;SDS011;4561;47.450;7.516;2023-04-25T01:08:57;3.60;;;2.17;;
9052;SDS011;4561;47.450;7.516;2023-04-25T01:12:18;7.63;;;2.53;;
9052;SDS011;4561;47.450;7.516;2023-04-25T01:15:38;3.87;;;2.53;;
9052;SDS011;4561;47.450;7.516;2023-04-25T01:18:59;4.80;;;2.47;;
9052;SDS011;4561;47.450;7.516;2023-04-25T01:22:19;7.13;;;2.73;;
9052;SDS011;4561;47.450;7.516;2023-04-25T01:25:40;3.27;;;2.40;;
9052;SDS011;4561;47.450;7.516;2023-04-25T01:29:01;7.17;;;2.30;;
9052;SDS011;4561;47.450;7.516;2023-04-25T01:32:22;4.90;;;2.50;;
9052;SDS011;4561;47.450;7.516;2023-04-25T01:35:45;5.87;;;2.77;;
9052;SDS011;4561;47.450;7.516;2023-04-25T01:39:09;7.60;;;2.67;;
9052;SDS011;4561;47.450;7.516;2023-04-25T01:42:30;7.10;;;2.60;;
9052;SDS011;4561;47.450;7.516;2023-04-25T01:45:52;3.27;;;2.20;;
9052;SDS011;4561;47.450;7.516;2023-04-25T01:49:15;3.80;;;2.53;;
9052;SDS011;4561;47.450;7.516;2023-04-25T01:52:36;7.47;;;2.60;;
9052;SDS011;4561;47.450;7.516;2023-04-25T01:55:56;4.57;;;2.60;;
9052;SDS011;4561;47.450;7.516;2023-04-25T01:59:17;3.63;;;2.20;;
9052;SDS011;4561;47.450;7.516;2023-04-25T02:02:41;3.90;;;2.50;;
9052;SDS011;4561;47.450;7.516;2023-04-25T02:06:02;6.97;;;3.27;;
9052;SDS011;4561;47.450;7.516;2023-04-25T02:09:22;2.87;;;2.40;;
9052;SDS011;4561;47.450;7.516;2023-04-25T02:12:43;4.93;;;2.67;;
9052;SDS011;4561;47.450;7.516;2023-04-25T02:16:03;8.60;;;4.27;;
9052;SDS011;4561;47.450;7.516;2023-04-25T02:19:27;5.67;;;2.67;;
9052;SDS011;4561;47.450;7.516;2023-04-25T02:22:47;7.93;;;2.93;;
9052;SDS011;4561;47.450;7.516;2023-04-25T02:26:07;5.43;;;2.53;;
9052;SDS011;4561;47.450;7.516;2023-04-25T02:29:28;5.70;;;2.63;;
9052;SDS011;4561;47.450;7.516;2023-04-25T02:32:49;5.30;;;2.70;;
9052;SDS011;4561;47.450;7.516;2023-04-25T02:36:10;5.03;;;2.87;;
9052;SDS011;4561;47.450;7.516;2023-04-25T02:39:30;4.30;;;2.77;;
9052;SDS011;4561;47.450;7.516;2023-04-25T02:42:51;6.40;;;3.00;;
9052;SDS011;4561;47.450;7.516;2023-04-25T02:46:11;6.07;;;2.70;;
9052;SDS011;4561;47.450;7.516;2023-04-25T02:49:32;6.50;;;2.87;;
9052;SDS011;4561;47.450;7.516;2023-04-25T02:52:52;6.73;;;3.03;;
9052;SDS011;4561;47.450;7.516;2023-04-25T02:56:15;5.77;;;2.77;;
9052;SDS011;4561;47.450;7.516;2023-04-25T02:59:35;4.23;;;2.80;;
9052;SDS011;4561;47.450;7.516;2023-04-25T03:02:56;3.43;;;2.73;;
9052;SDS011;4561;47.450;7.516;2023-04-25T03:06:17;6.50;;;2.40;;
9052;SDS011;4561;47.450;7.516;2023-04-25T03:09:37;5.97;;;3.17;;
9052;SDS011;4561;47.450;7.516;2023-04-25T03:13:00;4.77;;;2.70;;
9052;SDS011;4561;47.450;7.516;2023-04-25T03:16:21;10.93;;;2.80;;
9052;SDS011;4561;47.450;7.516;2023-04-25T03:19:41;5.63;;;2.93;;
9052;SDS011;4561;47.450;7.516;2023-04-25T03:23:02;5.17;;;2.90;;
9052;SDS011;4561;47.450;7.516;2023-04-25T03:26:22;6.20;;;2.53;;
9052;SDS011;4561;47.450;7.516;2023-04-25T03:29:43;5.13;;;2.60;;
9052;SDS011;4561;47.450;7.516;2023-04-25T03:33:03;6.07;;;2.53;;
9052;SDS011;4561;47.450;7.516;2023-04-25T03:36:23;5.83;;;2.93;;
9052;SDS011;4561;47.450;7.516;2023-04-25T03:39:46;5.87;;;2.73;;
9052;SDS011;4561;47.450;7.516;2023-04-25T03:43:06;5.00;;;2.30;;
9052;SDS011;4561;47.450;7.516;2023-04-25T03:46:27;4.97;;;2.40;;
9052;SDS011;4561;47.450;7.516;2023-04-25T03:49:47;3.33;;;2.30;;
9052;SDS011;4561;47.450;7.516;2023-04-25T03:53:12;5.13;;;2.63;;
9052;SDS011;4561;47.450;7.516;2023-04-25T03:56:33;7.83;;;3.07;;
9052;SDS011;4561;47.450;7.516;2023-04-25T03:59:53;5.67;;;2.80;;
9052;SDS011;4561;47.450;7.516;2023-04-25T04:03:13;3.60;;;2.50;;
9052;SDS011;4561;47.450;7.516;2023-04-25T04:06:34;4.97;;;2.40;;
9052;SDS011;4561;47.450;7.516;2023-04-25T04:09:54;6.43;;;2.70;;
9052;SDS011;4561;47.450;7.516;2023-04-25T04:13:15;4.03;;;2.40;;
9052;SDS011;4561;47.450;7.516;2023-04-25T04:16:35;5.27;;;2.60;;
9052;SDS011;4561;47.450;7.516;2023-04-25T04:19:56;6.13;;;2.80;;
9052;SDS011;4561;47.450;7.516;2023-04-25T04:23:19;8.50;;;2.50;;
9052;SDS011;4561;47.450;7.516;2023-04-25T04:26:39;4.40;;;2.90;;
9052;SDS011;4561;47.450;7.516;2023-04-25T04:30:00;5.93;;;2.93;;
9052;SDS011;4561;47.450;7.516;2023-04-25T04:33:21;7.63;;;2.73;;
9052;SDS011;4561;47.450;7.516;2023-04-25T04:36:43;4.73;;;2.60;;
9052;SDS011;4561;47.450;7.516;2023-04-25T04:40:07;4.80;;;2.77;;
9052;SDS011;4561;47.450;7.516;2023-04-25T04:43:27;4.37;;;2.73;;
9052;SDS011;4561;47.450;7.516;2023-04-25T04:46:48;3.77;;;1.70;;
9052;SDS011;4561;47.450;7.516;2023-04-25T04:50:09;2.67;;;1.50;;
9052;SDS011;4561;47.450;7.516;2023-04-25T04:53:30;1.30;;;1.03;;
9052;SDS011;4561;47.450;7.516;2023-04-25T04:56:52;2.07;;;1.00;;
9052;SDS011;4561;47.450;7.516;2023-04-25T05:00:13;1.27;;;1.10;;
9052;SDS011;4561;47.450;7.516;2023-04-25T05:03:35;1.10;;;1.00;;
9052;SDS011;4561;47.450;7.516;2023-04-25T05:06:58;1.60;;;1.10;;
9052;SDS011;4561;47.450;7.516;2023-04-25T05:10:19;2.20;;;0.93;;
9052;SDS011;4561;47.450;7.516;2023-04-25T05:13:40;1.27;;;0.67;;
9052;SDS011;4561;47.450;7.516;2023-04-25T05:17:03;1.30;;;0.80;;
9052;SDS011;4561;47.450;7.516;2023-04-25T05:20:26;0.93;;;0.87;;
9052;SDS011;4561;47.450;7.516;2023-04-25T05:23:47;3.80;;;2.07;;
9052;SDS011;4561;47.450;7.516;2023-04-25T05:27:09;1.10;;;1.00;;
9052;SDS011;4561;47.450;7.516;2023-04-25T05:30:32;0.90;;;0.90;;
9052;SDS011;4561;47.450;7.516;2023-04-25T05:33:52;2.70;;;0.80;;
9052;SDS011;4561;47.450;7.516;2023-04-25T05:37:15;0.77;;;0.77;;
9052;SDS011;4561;47.450;7.516;2023-04-25T05:40:35;1.07;;;0.97;;
9052;SDS011;4561;47.450;7.516;2023-04-25T05:43:55;1.00;;;0.80;;
9052;SDS011;4561;47.450;7.516;2023-04-25T05:47:16;2.00;;;1.03;;
9052;SDS011;4561;47.450;7.516;2023-04-25T05:50:36;1.17;;;0.90;;
9052;SDS011;4561;47.450;7.516;2023-04-25T05:53:56;1.73;;;1.50;;
9052;SDS011;4561;47.450;7.516;2023-04-25T05:57:23;1.10;;;1.00;;
9052;SDS011;4561;47.450;7.516;2023-04-25T06:00:44;1.47;;;1.23;;
9052;SDS011;4561;47.450;7.516;2023-04-25T06:04:06;2.03;;;1.30;;
9052;SDS011;4561;47.450;7.516;2023-04-25T06:07:26;1.50;;;1.40;;
9052;SDS011;4561;47.450;7.516;2023-04-25T06:10:47;2.67;;;1.27;;
9052;SDS011;4561;47.450;7.516;2023-04-25T06:14:07;7.30;;;6.50;;
9052;SDS011;4561;47.450;7.516;2023-04-25T06:17:27;2.07;;;1.40;;
9052;SDS011;4561;47.450;7.516;2023-04-25T06:20:48;3.17;;;1.30;;
9052;SDS011;4561;47.450;7.516;2023-04-25T06:24:11;4.47;;;3.03;;
9052;SDS011;4561;47.450;7.516;2023-04-25T06:27:34;1.50;;;1.40;;
9052;SDS011;4561;47.450;7.516;2023-04-25T06:30:55;1.40;;;1.20;;
9052;SDS011;4561;47.450;7.516;2023-04-25T06:34:15;1.10;;;1.00;;
9052;SDS011;4561;47.450;7.516;2023-04-25T06:37:36;1.87;;;0.90;;
9052;SDS011;4561;47.450;7.516;2023-04-25T06:40:56;1.23;;;1.00;;
9052;SDS011;4561;47.450;7.516;2023-04-25T06:44:16;1.50;;;1.10;;
9052;SDS011;4561;47.450;7.516;2023-04-25T06:47:37;1.70;;;1.33;;
9052;SDS011;4561;47.450;7.516;2023-04-25T06:50:59;1.37;;;1.27;;
9052;SDS011;4561;47.450;7.516;2023-04-25T06:54:20;1.97;;;1.77;;
9052;SDS011;4561;47.450;7.516;2023-04-25T06:57:40;1.37;;;1.27;;
9052;SDS011;4561;47.450;7.516;2023-04-25T07:01:01;2.17;;;1.30;;
9052;SDS011;4561;47.450;7.516;2023-04-25T07:04:21;1.20;;;1.10;;
9052;SDS011;4561;47.450;7.516;2023-04-25T07:07:43;1.00;;;0.90;;
9052;SDS011;4561;47.450;7.516;2023-04-25T07:11:07;3.00;;;1.53;;
9052;SDS011;4561;47.450;7.516;2023-04-25T07:14:27;1.63;;;1.50;;
9052;SDS011;4561;47.450;7.516;2023-04-25T07:17:48;1.60;;;1.50;;
9052;SDS011;4561;47.450;7.516;2023-04-25T07:21:08;1.40;;;1.27;;
9052;SDS011;4561;47.450;7.516;2023-04-25T07:24:31;1.57;;;1.47;;
9052;SDS011;4561;47.450;7.516;2023-04-25T07:27:51;2.07;;;1.83;;
9052;SDS011;4561;47.450;7.516;2023-04-25T07:31:14;2.60;;;2.10;;
9052;SDS011;4561;47.450;7.516;2023-04-25T07:34:36;3.20;;;1.57;;
9052;SDS011;4561;47.450;7.516;2023-04-25T07:37:58;1.53;;;1.40;;
9052;SDS011;4561;47.450;7.516;2023-04-25T07:41:19;1.97;;;1.40;;
9052;SDS011;4561;47.450;7.516;2023-04-25T07:44:42;2.87;;;1.40;;
9052;SDS011;4561;47.450;7.516;2023-04-25T07:48:05;1.80;;;1.30;;
9052;SDS011;4561;47.450;7.516;2023-04-25T07:51:26;1.53;;;1.20;;
9052;SDS011;4561;47.450;7.516;2023-04-25T07:54:46;1.83;;;1.20;;
9052;SDS011;4561;47.450;7.516;2023-04-25T07:58:12;1.53;;;1.43;;
9052;SDS011;4561;47.450;7.516;2023-04-25T08:01:33;2.03;;;1.40;;
9052;SDS011;4561;47.450;7.516;2023-04-25T08:04:54;1.80;;;1.50;;
9052;SDS011;4561;47.450;7.516;2023-04-25T08:08:14;1.23;;;1.07;;
9052;SDS011;4561;47.450;7.516;2023-04-25T08:11:37;2.50;;;1.50;;
9052;SDS011;4561;47.450;7.516;2023-04-25T08:14:58;1.47;;;1.37;;
9052;SDS011;4561;47.450;7.516;2023-04-25T08:18:18;2.17;;;1.53;;
9052;SDS011;4561;47.450;7.516;2023-04-25T08:21:38;1.50;;;1.40;;
9052;SDS011;4561;47.450;7.516;2023-04-25T08:24:59;2.73;;;1.63;;
9052;SDS011;4561;47.450;7.516;2023-04-25T08:28:19;1.83;;;1.23;;
9052;SDS011;4561;47.450;7.516;2023-04-25T08:31:40;2.00;;;1.77;;
9052;SDS011;4561;47.450;7.516;2023-04-25T08:35:05;2.67;;;1.67;;
9052;SDS011;4561;47.450;7.516;2023-04-25T08:38:26;1.40;;;1.30;;
9052;SDS011;4561;47.450;7.516;2023-04-25T08:41:46;1.70;;;1.60;;
9052;SDS011;4561;47.450;7.516;2023-04-25T08:45:08;1.73;;;1.60;;
9052;SDS011;4561;47.450;7.516;2023-04-25T08:48:32;2.93;;;1.57;;
9052;SDS011;4561;47.450;7.516;2023-04-25T08:51:52;1.53;;;1.30;;
9052;SDS011;4561;47.450;7.516;2023-04-25T08:55:18;1.70;;;1.20;;
9052;SDS011;4561;47.450;7.516;2023-04-25T08:58:38;1.13;;;1.03;;
9052;SDS011;4561;47.450;7.516;2023-04-25T09:02:02;1.40;;;1.30;;
9052;SDS011;4561;47.450;7.516;2023-04-25T09:05:23;3.37;;;1.17;;
9052;SDS011;4561;47.450;7.516;2023-04-25T09:08:43;1.73;;;1.30;;
9052;SDS011;4561;47.450;7.516;2023-04-25T09:12:04;1.50;;;1.40;;
9052;SDS011;4561;47.450;7.516;2023-04-25T09:15:25;1.50;;;1.27;;
9052;SDS011;4561;47.450;7.516;2023-04-25T09:18:45;1.60;;;1.50;;
9052;SDS011;4561;47.450;7.516;2023-04-25T09:22:07;1.57;;;1.47;;
9052;SDS011;4561;47.450;7.516;2023-04-25T09:25:28;3.00;;;1.57;;
9052;SDS011;4561;47.450;7.516;2023-04-25T09:29:04;1.70;;;1.60;;
9052;SDS011;4561;47.450;7.516;2023-04-25T09:32:28;2.50;;;1.50;;
9052;SDS011;4561;47.450;7.516;2023-04-25T09:35:51;2.73;;;1.70;;
9052;SDS011;4561;47.450;7.516;2023-04-25T09:39:15;1.87;;;1.43;;
9052;SDS011;4561;47.450;7.516;2023-04-25T09:42:35;1.53;;;1.43;;
9052;SDS011;4561;47.450;7.516;2023-04-25T09:45:56;2.37;;;1.40;;
9052;SDS011;4561;47.450;7.516;2023-04-25T09:49:20;1.93;;;1.53;;
9052;SDS011;4561;47.450;7.516;2023-04-25T09:52:44;1.93;;;1.30;;
9052;SDS011;4561;47.450;7.516;2023-04-25T09:56:05;1.30;;;1.13;;
9052;SDS011;4561;47.450;7.516;2023-04-25T09:59:28;1.40;;;1.30;;
9052;SDS011;4561;47.450;7.516;2023-04-25T10:02:51;2.37;;;1.40;;
9052;SDS011;4561;47.450;7.516;2023-04-25T10:06:14;1.43;;;1.30;;
9052;SDS011;4561;47.450;7.516;2023-04-25T10:09:42;1.20;;;1.10;;
9052;SDS011;4561;47.450;7.516;2023-04-25T10:13:03;2.60;;;1.83;;
9052;SDS011;4561;47.450;7.516;2023-04-25T10:16:26;3.10;;;1.40;;
9052;SDS011;4561;47.450;7.516;2023-04-25T10:19:47;3.23;;;1.47;;
9052;SDS011;4561;47.450;7.516;2023-04-25T10:23:12;1.53;;;1.43;;
9052;SDS011;4561;47.450;7.516;2023-04-25T10:26:40;1.27;;;1.17;;
9052;SDS011;4561;47.450;7.516;2023-04-25T10:30:10;3.20;;;1.83;;
9052;SDS011;4561;47.450;7.516;2023-04-25T10:33:38;2.73;;;1.20;;
9052;SDS011;4561;47.450;7.516;2023-04-25T10:36:59;1.73;;;1.30;;
9052;SDS011;4561;47.450;7.516;2023-04-25T10:40:23;2.33;;;1.30;;
9052;SDS011;4561;47.450;7.516;2023-04-25T10:43:44;3.07;;;1.40;;
9052;SDS011;4561;47.450;7.516;2023-04-25T10:47:10;1.83;;;1.20;;
9052;SDS011;4561;47.450;7.516;2023-04-25T10:50:37;2.40;;;1.50;;
9052;SDS011;4561;47.450;7.516;2023-04-25T10:57:29;3.10;;;1.10;;
9052;SDS011;4561;47.450;7.516;2023-04-25T11:01:04;1.97;;;1.40;;
9052;SDS011;4561;47.450;7.516;2023-04-25T11:07:49;1.50;;;1.30;;
9052;SDS011;4561;47.450;7.516;2023-04-25T11:11:17;1.67;;;1.30;;
9052;SDS011;4561;47.450;7.516;2023-04-25T11:14:38;1.63;;;1.43;;
9052;SDS011;4561;47.450;7.516;2023-04-25T11:17:59;3.57;;;1.57;;
9052;SDS011;4561;47.450;7.516;2023-04-25T11:21:20;1.47;;;1.23;;
9052;SDS011;4561;47.450;7.516;2023-04-25T11:24:40;1.53;;;1.20;;
9052;SDS011;4561;47.450;7.516;2023-04-25T11:28:09;3.13;;;1.53;;
9052;SDS011;4561;47.450;7.516;2023-04-25T11:31:32;1.83;;;1.50;;
9052;SDS011;4561;47.450;7.516;2023-04-25T11:34:53;1.67;;;1.27;;
9052;SDS011;4561;47.450;7.516;2023-04-25T11:38:13;2.50;;;1.30;;
9052;SDS011;4561;47.450;7.516;2023-04-25T11:41:34;1.50;;;1.40;;
9052;SDS011;4561;47.450;7.516;2023-04-25T11:44:54;1.73;;;1.53;;
9052;SDS011;4561;47.450;7.516;2023-04-25T11:48:14;4.30;;;1.67;;
9052;SDS011;4561;47.450;7.516;2023-04-25T11:51:39;1.20;;;1.10;;
9052;SDS011;4561;47.450;7.516;2023-04-25T11:55:09;2.67;;;1.40;;
9052;SDS011;4561;47.450;7.516;2023-04-25T11:58:33;1.40;;;1.27;;
9052;SDS011;4561;47.450;7.516;2023-04-25T12:02:25;1.47;;;1.00;;
9052;SDS011;4561;47.450;7.516;2023-04-25T12:05:46;3.77;;;1.30;;
9052;SDS011;4561;47.450;7.516;2023-04-25T12:09:07;2.07;;;1.50;;
9052;SDS011;4561;47.450;7.516;2023-04-25T12:12:32;2.53;;;1.47;;
9052;SDS011;4561;47.450;7.516;2023-04-25T12:15:56;2.23;;;1.70;;
9052;SDS011;4561;47.450;7.516;2023-04-25T12:19:17;4.30;;;1.40;;
9052;SDS011;4561;47.450;7.516;2023-04-25T12:22:40;1.80;;;1.17;;
9052;SDS011;4561;47.450;7.516;2023-04-25T12:26:07;2.10;;;1.10;;
9052;SDS011;4561;47.450;7.516;2023-04-25T12:29:28;2.03;;;1.40;;
9052;SDS011;4561;47.450;7.516;2023-04-25T12:32:52;3.80;;;1.47;;
9052;SDS011;4561;47.450;7.516;2023-04-25T12:36:12;1.90;;;1.20;;
9052;SDS011;4561;47.450;7.516;2023-04-25T12:39:33;3.73;;;2.00;;
9052;SDS011;4561;47.450;7.516;2023-04-25T12:42:56;3.17;;;1.60;;
9052;SDS011;4561;47.450;7.516;2023-04-25T12:46:17;2.37;;;1.40;;
9052;SDS011;4561;47.450;7.516;2023-04-25T12:49:40;4.40;;;1.53;;
9052;SDS011;4561;47.450;7.516;2023-04-25T12:53:01;2.50;;;1.33;;
9052;SDS011;4561;47.450;7.516;2023-04-25T12:56:26;2.33;;;1.17;;
9052;SDS011;4561;47.450;7.516;2023-04-25T12:59:54;3.70;;;1.40;;
9052;SDS011;4561;47.450;7.516;2023-04-25T13:03:16;2.70;;;1.33;;
9052;SDS011;4561;47.450;7.516;2023-04-25T13:06:37;1.70;;;1.30;;
9052;SDS011;4561;47.450;7.516;2023-04-25T13:09:58;1.73;;;1.00;;
9052;SDS011;4561;47.450;7.516;2023-04-25T13:13:19;2.10;;;1.00;;
9052;SDS011;4561;47.450;7.516;2023-04-25T13:16:40;1.00;;;1.00;;
9052;SDS011;4561;47.450;7.516;2023-04-25T13:20:01;0.93;;;0.83;;
9052;SDS011;4561;47.450;7.516;2023-04-25T13:23:26;2.27;;;0.80;;
9052;SDS011;4561;47.450;7.516;2023-04-25T13:26:47;0.80;;;0.80;;
9052;SDS011;4561;47.450;7.516;2023-04-25T13:30:08;0.80;;;0.70;;
9052;SDS011;4561;47.450;7.516;2023-04-25T13:33:28;0.90;;;0.80;;
9052;SDS011;4561;47.450;7.516;2023-04-25T13:36:49;1.33;;;0.90;;
9052;SDS011;4561;47.450;7.516;2023-04-25T13:40:10;1.37;;;1.27;;
9052;SDS011;4561;47.450;7.516;2023-04-25T13:43:31;2.13;;;0.80;;
9052;SDS011;4561;47.450;7.516;2023-04-25T13:46:52;0.83;;;0.83;;
9052;SDS011;4561;47.450;7.516;2023-04-25T13:50:12;2.10;;;0.70;;
9052;SDS011;4561;47.450;7.516;2023-04-25T13:53:36;1.30;;;0.80;;
9052;SDS011;4561;47.450;7.516;2023-04-25T13:56:56;1.70;;;1.30;;
9052;SDS011;4561;47.450;7.516;2023-04-25T14:00:19;1.30;;;0.90;;
9052;SDS011;4561;47.450;7.516;2023-04-25T14:03:40;1.17;;;1.07;;
9052;SDS011;4561;47.450;7.516;2023-04-25T14:07:02;1.20;;;1.10;;
9052;SDS011;4561;47.450;7.516;2023-04-25T14:10:27;2.20;;;1.10;;
9052;SDS011;4561;47.450;7.516;2023-04-25T14:13:47;3.90;;;1.47;;
9052;SDS011;4561;47.450;7.516;2023-04-25T14:17:10;1.47;;;1.37;;
9052;SDS011;4561;47.450;7.516;2023-04-25T14:20:30;3.70;;;1.30;;
9052;SDS011;4561;47.450;7.516;2023-04-25T14:23:51;2.90;;;1.50;;
9052;SDS011;4561;47.450;7.516;2023-04-25T14:27:11;3.23;;;1.60;;
9052;SDS011;4561;47.450;7.516;2023-04-25T14:30:32;2.13;;;1.33;;
9052;SDS011;4561;47.450;7.516;2023-04-25T14:33:52;1.50;;;1.33;;
9052;SDS011;4561;47.450;7.516;2023-04-25T14:37:17;2.23;;;1.40;;
9052;SDS011;4561;47.450;7.516;2023-04-25T14:40:38;2.13;;;1.30;;
9052;SDS011;4561;47.450;7.516;2023-04-25T14:43:58;3.67;;;1.30;;
9052;SDS011;4561;47.450;7.516;2023-04-25T14:47:18;1.83;;;1.20;;
9052;SDS011;4561;47.450;7.516;2023-04-25T14:50:39;1.77;;;1.30;;
9052;SDS011;4561;47.450;7.516;2023-04-25T14:53:59;2.47;;;1.30;;
9052;SDS011;4561;47.450;7.516;2023-04-25T14:57:20;3.53;;;1.20;;
9052;SDS011;4561;47.450;7.516;2023-04-25T15:00:40;2.03;;;1.20;;
9052;SDS011;4561;47.450;7.516;2023-04-25T15:04:00;1.73;;;1.10;;
9052;SDS011;4561;47.450;7.516;2023-04-25T15:07:21;1.50;;;1.17;;
9052;SDS011;4561;47.450;7.516;2023-04-25T15:10:42;1.70;;;1.33;;
9052;SDS011;4561;47.450;7.516;2023-04-25T15:14:02;2.60;;;1.30;;
9052;SDS011;4561;47.450;7.516;2023-04-25T15:17:25;1.97;;;1.40;;
9052;SDS011;4561;47.450;7.516;2023-04-25T15:20:46;1.77;;;1.30;;
9052;SDS011;4561;47.450;7.516;2023-04-25T15:24:06;2.53;;;1.43;;
9052;SDS011;4561;47.450;7.516;2023-04-25T15:27:27;2.70;;;1.30;;
9052;SDS011;4561;47.450;7.516;2023-04-25T15:30:48;3.03;;;1.60;;
9052;SDS011;4561;47.450;7.516;2023-04-25T15:34:08;2.63;;;1.47;;
9052;SDS011;4561;47.450;7.516;2023-04-25T15:37:29;1.50;;;1.20;;
9052;SDS011;4561;47.450;7.516;2023-04-25T15:40:51;4.00;;;1.33;;
9052;SDS011;4561;47.450;7.516;2023-04-25T15:44:11;2.30;;;1.30;;
9052;SDS011;4561;47.450;7.516;2023-04-25T15:47:33;3.57;;;1.20;;
9052;SDS011;4561;47.450;7.516;2023-04-25T15:50:56;2.37;;;1.23;;
9052;SDS011;4561;47.450;7.516;2023-04-25T15:54:19;3.43;;;2.70;;
9052;SDS011;4561;47.450;7.516;2023-04-25T15:57:41;3.40;;;1.60;;
9052;SDS011;4561;47.450;7.516;2023-04-25T16:01:03;1.20;;;1.10;;
9052;SDS011;4561;47.450;7.516;2023-04-25T16:04:24;2.63;;;1.33;;
9052;SDS011;4561;47.450;7.516;2023-04-25T16:07:45;1.77;;;1.50;;
9052;SDS011;4561;47.450;7.516;2023-04-25T16:11:06;2.83;;;1.47;;
9052;SDS011;4561;47.450;7.516;2023-04-25T16:14:29;1.97;;;1.40;;
9052;SDS011;4561;47.450;7.516;2023-04-25T16:17:50;3.20;;;1.70;;
9052;SDS011;4561;47.450;7.516;2023-04-25T16:21:10;2.30;;;1.43;;
9052;SDS011;4561;47.450;7.516;2023-04-25T16:24:35;4.40;;;1.90;;
9052;SDS011;4561;47.450;7.516;2023-04-25T16:27:55;2.60;;;1.80;;
9052;SDS011;4561;47.450;7.516;2023-04-25T16:31:16;3.50;;;1.40;;
9052;SDS011;4561;47.450;7.516;2023-04-25T16:34:36;1.90;;;1.23;;
9052;SDS011;4561;47.450;7.516;2023-04-25T16:37:59;2.50;;;1.73;;
9052;SDS011;4561;47.450;7.516;2023-04-25T16:41:19;3.07;;;1.77;;
9052;SDS011;4561;47.450;7.516;2023-04-25T16:44:40;2.87;;;1.50;;
9052;SDS011;4561;47.450;7.516;2023-04-25T16:48:00;2.73;;;1.53;;
9052;SDS011;4561;47.450;7.516;2023-04-25T16:51:21;2.77;;;1.63;;
9052;SDS011;4561;47.450;7.516;2023-04-25T16:54:41;2.10;;;1.43;;
9052;SDS011;4561;47.450;7.516;2023-04-25T16:58:02;3.37;;;1.47;;
9052;SDS011;4561;47.450;7.516;2023-04-25T17:01:22;2.87;;;1.73;;
9052;SDS011;4561;47.450;7.516;2023-04-25T17:04:42;3.63;;;1.60;;
9052;SDS011;4561;47.450;7.516;2023-04-25T17:08:03;2.93;;;1.63;;
9052;SDS011;4561;47.450;7.516;2023-04-25T17:11:26;3.27;;;1.50;;
9052;SDS011;4561;47.450;7.516;2023-04-25T17:14:48;3.13;;;1.60;;
9052;SDS011;4561;47.450;7.516;2023-04-25T17:18:11;2.77;;;1.73;;
9052;SDS011;4561;47.450;7.516;2023-04-25T17:21:32;3.60;;;1.43;;
9052;SDS011;4561;47.450;7.516;2023-04-25T17:24:52;2.40;;;1.77;;
9052;SDS011;4561;47.450;7.516;2023-04-25T17:28:15;3.57;;;1.73;;
9052;SDS011;4561;47.450;7.516;2023-04-25T17:31:35;3.13;;;1.50;;
9052;SDS011;4561;47.450;7.516;2023-04-25T17:34:56;5.27;;;1.47;;
9052;SDS011;4561;47.450;7.516;2023-04-25T17:38:17;3.17;;;1.60;;
9052;SDS011;4561;47.450;7.516;2023-04-25T17:41:37;3.27;;;1.70;;
9052;SDS011;4561;47.450;7.516;2023-04-25T17:44:57;4.67;;;1.70;;
9052;SDS011;4561;47.450;7.516;2023-04-25T17:48:18;3.90;;;1.70;;
9052;SDS011;4561;47.450;7.516;2023-04-25T17:51:41;1.93;;;1.23;;
9052;SDS011;4561;47.450;7.516;2023-04-25T17:55:02;5.30;;;1.70;;
9052;SDS011;4561;47.450;7.516;2023-04-25T17:58:25;2.67;;;1.60;;
9052;SDS011;4561;47.450;7.516;2023-04-25T18:01:46;3.33;;;1.70;;
9052;SDS011;4561;47.450;7.516;2023-04-25T18:05:06;2.63;;;1.60;;
9052;SDS011;4561;47.450;7.516;2023-04-25T18:08:29;3.43;;;2.00;;
9052;SDS011;4561;47.450;7.516;2023-04-25T18:11:50;5.37;;;2.00;;
9052;SDS011;4561;47.450;7.516;2023-04-25T18:15:17;5.80;;;1.80;;
9052;SDS011;4561;47.450;7.516;2023-04-25T18:18:38;2.47;;;1.67;;
9052;SDS011;4561;47.450;7.516;2023-04-25T18:22:01;3.33;;;1.70;;
9052;SDS011;4561;47.450;7.516;2023-04-25T18:25:22;3.10;;;1.63;;
9052;SDS011;4561;47.450;7.516;2023-04-25T18:28:45;3.50;;;1.50;;
9052;SDS011;4561;47.450;7.516;2023-04-25T18:32:05;3.13;;;1.70;;
9052;SDS011;4561;47.450;7.516;2023-04-25T18:35:26;3.20;;;1.60;;
9052;SDS011;4561;47.450;7.516;2023-04-25T18:38:46;1.80;;;1.70;;
9052;SDS011;4561;47.450;7.516;2023-04-25T18:42:12;2.43;;;1.90;;
9052;SDS011;4561;47.450;7.516;2023-04-25T18:45:33;3.53;;;2.07;;
9052;SDS011;4561;47.450;7.516;2023-04-25T18:48:53;2.37;;;1.90;;
9052;SDS011;4561;47.450;7.516;2023-04-25T18:52:13;2.87;;;1.90;;
9052;SDS011;4561;47.450;7.516;2023-04-25T18:55:34;4.53;;;2.23;;
9052;SDS011;4561;47.450;7.516;2023-04-25T18:58:55;1.90;;;1.60;;
9052;SDS011;4561;47.450;7.516;2023-04-25T19:02:16;3.20;;;2.10;;
9052;SDS011;4561;47.450;7.516;2023-04-25T19:05:36;3.63;;;2.23;;
9052;SDS011;4561;47.450;7.516;2023-04-25T19:08:57;2.33;;;1.77;;
9052;SDS011;4561;47.450;7.516;2023-04-25T19:12:17;2.03;;;1.80;;
9052;SDS011;4561;47.450;7.516;2023-04-25T19:15:38;2.67;;;1.90;;
9052;SDS011;4561;47.450;7.516;2023-04-25T19:19:01;3.13;;;2.07;;
9052;SDS011;4561;47.450;7.516;2023-04-25T19:22:21;5.97;;;2.33;;
9052;SDS011;4561;47.450;7.516;2023-04-25T19:25:45;3.33;;;2.23;;
9052;SDS011;4561;47.450;7.516;2023-04-25T19:29:06;2.93;;;2.10;;
9052;SDS011;4561;47.450;7.516;2023-04-25T19:32:27;2.20;;;1.80;;
9052;SDS011;4561;47.450;7.516;2023-04-25T19:35:51;2.83;;;1.90;;
9052;SDS011;4561;47.450;7.516;2023-04-25T19:39:11;4.90;;;2.20;;
9052;SDS011;4561;47.450;7.516;2023-04-25T19:42:32;1.93;;;1.73;;
9052;SDS011;4561;47.450;7.516;2023-04-25T19:45:52;2.60;;;2.27;;
9052;SDS011;4561;47.450;7.516;2023-04-25T19:49:16;2.13;;;1.93;;
9052;SDS011;4561;47.450;7.516;2023-04-25T19:52:38;2.80;;;1.80;;
9052;SDS011;4561;47.450;7.516;2023-04-25T19:55:59;3.20;;;2.03;;
9052;SDS011;4561;47.450;7.516;2023-04-25T19:59:19;2.60;;;2.40;;
9052;SDS011;4561;47.450;7.516;2023-04-25T20:02:40;5.00;;;2.07;;
9052;SDS011;4561;47.450;7.516;2023-04-25T20:06:02;2.97;;;1.67;;
9052;SDS011;4561;47.450;7.516;2023-04-25T20:09:23;4.27;;;1.73;;
9052;SDS011;4561;47.450;7.516;2023-04-25T20:12:43;2.33;;;1.90;;
9052;SDS011;4561;47.450;7.516;2023-04-25T20:16:04;2.57;;;2.13;;
9052;SDS011;4561;47.450;7.516;2023-04-25T20:19:29;5.83;;;4.37;;
9052;SDS011;4561;47.450;7.516;2023-04-25T20:22:51;3.87;;;3.33;;
9052;SDS011;4561;47.450;7.516;2023-04-25T20:26:13;3.60;;;2.80;;
9052;SDS011;4561;47.450;7.516;2023-04-25T20:29:33;3.87;;;2.30;;
9052;SDS011;4561;47.450;7.516;2023-04-25T20:32:54;4.53;;;2.50;;
9052;SDS011;4561;47.450;7.516;2023-04-25T20:36:15;3.97;;;2.20;;
9052;SDS011;4561;47.450;7.516;2023-04-25T20:39:38;5.17;;;2.23;;
9052;SDS011;4561;47.450;7.516;2023-04-25T20:42:59;3.83;;;2.00;;
9052;SDS011;4561;47.450;7.516;2023-04-25T20:46:24;7.57;;;2.07;;
9052;SDS011;4561;47.450;7.516;2023-04-25T20:49:45;2.57;;;2.33;;
9052;SDS011;4561;47.450;7.516;2023-04-25T20:53:05;2.30;;;1.90;;
9052;SDS011;4561;47.450;7.516;2023-04-25T20:56:26;2.63;;;2.17;;
9052;SDS011;4561;47.450;7.516;2023-04-25T20:59:49;2.87;;;1.70;;